METAR Data

Data at: 0156 UTC 24 Sep 2018

METAR for:EGLF (Farnborough Arpt, --, UK)
Text:No data found

TAF for:EGLF (Farnborough Arpt, --, UK) issued at 1402 UTC 23 Sep 2018
Text:TAF EGLF 231402Z 2315/2319 33012KT 9999 FEW025
Forecast period:1500 to 1900 UTC 23 September 2018
Forecast type:FROM: standard forecast or significant change
Winds:from the NNW (330 degrees) at 14 MPH (12 knots; 6.2 m/s)
Visibility:6 or more sm (10+ km)
Ceiling:at least 12,000 feet AGL
Clouds: few clouds at 2500 feet AGL

METAR for:EGUB (Benson(RAF), --, UK)
Text:EGUB 240050Z AUTO 11002KT 9999 // NCD 01/00 Q1034
Temperature: 1.0°C ( 34°F)
Dewpoint: 0.0°C ( 32°F) [RH = 93%]
Pressure (altimeter):30.53 inches Hg (1034.0 mb)
Winds:from the ESE (110 degrees) at 2 MPH (2 knots; 1.0 m/s)
Visibility:6 or more sm (10+ km)
Ceiling:at least 12,000 feet AGL
Clouds:sky clear below 12,000 feet AGL

TAF for:EGUB (Benson(RAF), --, UK)
Text:No data found

METAR for:EGVO (Odiham(RAF), --, UK)
Text:EGVO 240050Z 27006KT CAVOK 07/05 Q1033 BLU
Temperature: 7.0°C ( 45°F)
Dewpoint: 5.0°C ( 41°F) [RH = 87%]
Pressure (altimeter):30.50 inches Hg (1033.0 mb)
Winds:from the W (270 degrees) at 7 MPH (6 knots; 3.1 m/s)
Visibility:6 or more sm (10+ km)
Ceiling:ceiling and visibility are OK
Clouds:unknown

TAF for:EGVO (Odiham(RAF), --, UK)
Text:No data found

METAR for:EGTK (Oxford Arpt, --, UK)
Text:EGTK 232120Z 30007KT CAVOK 08/05 Q1030
Temperature: 8.0°C ( 46°F)
Dewpoint: 5.0°C ( 41°F) [RH = 81%]
Pressure (altimeter):30.41 inches Hg (1030.0 mb)
Winds:from the WNW (300 degrees) at 8 MPH (7 knots; 3.6 m/s)
Visibility:6 or more sm (10+ km)
Ceiling:ceiling and visibility are OK
Clouds:unknown

TAF for:EGTK (Oxford Arpt, --, UK) issued at 1708 UTC 23 Sep 2018
Text:TAF EGTK 231708Z 2318/2322 35012KT 9999 SCT040
Forecast period:1800 to 2200 UTC 23 September 2018
Forecast type:FROM: standard forecast or significant change
Winds:from the N (350 degrees) at 14 MPH (12 knots; 6.2 m/s)
Visibility:6 or more sm (10+ km)
Ceiling:at least 12,000 feet AGL
Clouds: scattered clouds at 4000 feet AGL

METAR for:EGHH (Bournemouth Intl, --, UK)
Text:EGHH 232220Z 33008KT CAVOK 05/04 Q1032
Temperature: 5.0°C ( 41°F)
Dewpoint: 4.0°C ( 39°F) [RH = 93%]
Pressure (altimeter):30.47 inches Hg (1032.0 mb)
Winds:from the NNW (330 degrees) at 9 MPH (8 knots; 4.1 m/s)
Visibility:6 or more sm (10+ km)
Ceiling:ceiling and visibility are OK
Clouds:unknown

TAF for:EGHH (Bournemouth Intl, --, UK) issued at 2300 UTC 23 Sep 2018
Text:TAF EGHH 232300Z 2400/2409 32004KT CAVOK
Forecast period:0000 to 0900 UTC 24 September 2018
Forecast type:FROM: standard forecast or significant change
Winds:from the NW (320 degrees) at 5 MPH (4 knots; 2.1 m/s)
Visibility:6 or more sm (10+ km)
Clouds:missing
Weather:NSW (no significant weather)
Text:PROB30 2404/2407 6000
Forecast period:0400 to 0700 UTC 24 September 2018
Forecast type:PROBABLE: 30 percent likelihood of the following during this time
Visibility: 4 sm ( 6 km)
Clouds:missing

METAR for:
Text:No data found

TAF for:
Text:No data found